Briefing drone pour Tournon-sur-rhone

Rechercher une autre localisation

Conditions de vol :


Nous sommes le : Samedi 04 février 2023
Il est 15:51 UTC (16:51 LT)

Lever de soleil : 06:30 UTC (07:30 LT)
Coucher de soleil : 17:18 UTC (18:18 LT)

Météo

L'essentiel des conditions de vol

VIGILANCE MÉTÉO FRANCE - Ardèche (07)
Vigilance Jaune : Vent violent
METAR de LFLU
LFLU 041530Z AUTO 36020KT 9999 OVC023 10/06 Q1030

Date d'émission: 04/02/2023
Heure d'émission: 15:30 UTC
Vent: 360° pour 20 KT (37 km/h)
Visibilité horizontale: > 10 km
Plafond :
- Couvert à 2300ft (701m)
Température: 10 °C
Point de rosée: 6 °C
Humidité: 76%
Pression (QNH): 1030 hPa
Prévision 24h pour Valence (10 km)
Vent : 14° pour 9 KT (33 km/h)
Temperature Maxi: 9 °C
Temperature Min: 9 °C
Humidité : 60%
Condition : Peu nuageux



Warning: count(): Parameter must be an array or an object that implements Countable in /homepages/6/d509196549/htdocs/droneoxygene/briefing.php on line 743
WEBCAM POUR TOURNON-SUR-RHONE

Réglementation

Voler en sécurité

CARTES AERONAUTIQUE 1/500.000
CARTE AZBA (Reseau basse altitude)
CARTES VAC (LFLU)
SUP AIP




Chargement des AIP...
NOTAM (TOURNON-SUR-RHONE + Terrain à proximité / FIR )




Chargement des NOTAMS...
CONTACT PREFECTURE 07
Ardèche (07) : [email protected]


Avertissement : Les données mises à disposition sont indicatives. Oxygène Drone ne pourra être tenu responsable de dégâts causés aux biens et aux personnes.